Time;durP1;ratioP1;P1;durP2;ratioP2;P2;SDS_P1;SDS_P2;PMS_P1;PMS_P2;Temp;Humidity;BMP_temperature;BMP_pressure;BME280_temperature;BME280_humidity;BME280_pressure;Samples;Min_cycle;Max_cycle;Signal;HPM_P1;HPM_P2
2021/08/08 00:01:22;;;;;;;2.98;1.77;;;;;;;18.49;73.81;99608.36;1735511;82;21033;-78
2021/08/08 00:03:48;;;;;;;2.20;1.62;;;;;;;18.50;73.77;99614.06;1728982;82;20933;-78
2021/08/08 00:06:15;;;;;;;1.80;1.70;;;;;;;18.49;73.74;99617.34;1706237;82;21036;-79
2021/08/08 00:08:43;;;;;;;1.90;1.80;;;;;;;18.47;73.84;99619.55;1736850;81;20949;-78
2021/08/08 00:11:09;;;;;;;3.35;1.67;;;;;;;18.45;73.99;99631.87;1712158;82;21380;-78
2021/08/08 00:13:36;;;;;;;3.65;1.60;;;;;;;18.41;74.16;99622.70;1735369;82;20966;-79
2021/08/08 00:16:03;;;;;;;3.52;2.10;;;;;;;18.40;74.34;99622.44;1735420;82;21523;-79
2021/08/08 00:18:31;;;;;;;2.05;1.87;;;;;;;18.37;74.40;99626.56;1743527;81;20967;-79
2021/08/08 00:20:58;;;;;;;1.92;1.77;;;;;;;18.35;74.46;99621.98;1739246;81;21070;-79
2021/08/08 00:23:24;;;;;;;4.08;2.25;;;;;;;18.30;74.56;99618.00;1739179;81;21512;-79
2021/08/08 00:25:51;;;;;;;2.12;1.92;;;;;;;18.24;74.74;99617.84;1717543;81;20945;-79
2021/08/08 00:28:17;;;;;;;3.47;1.92;;;;;;;18.16;74.93;99624.80;1741357;81;21017;-80
2021/08/08 00:30:44;;;;;;;3.20;2.37;;;;;;;18.10;75.30;99631.99;1760953;81;20935;-78
2021/08/08 00:33:11;;;;;;;1.82;1.72;;;;;;;18.05;75.49;99632.09;1739221;81;21039;-77
2021/08/08 00:35:42;;;;;;;3.30;1.80;;;;;;;18.00;75.87;99628.91;1743583;81;21458;-78
2021/08/08 00:38:11;;;;;;;2.42;2.22;;;;;;;17.98;76.06;99633.05;1738452;81;21639;-79
2021/08/08 00:40:39;;;;;;;4.28;2.05;;;;;;;17.97;76.25;99630.88;1761055;81;21003;-77
2021/08/08 00:43:11;;;;;;;2.02;1.85;;;;;;;17.98;76.38;99634.41;1715117;81;21508;-78
2021/08/08 00:45:42;;;;;;;2.47;2.27;;;;;;;17.97;76.46;99640.41;1737486;81;21102;-79
2021/08/08 00:48:13;;;;;;;3.22;2.85;;;;;;;17.96;76.55;99632.53;1737063;81;21600;-78
2021/08/08 00:50:44;;;;;;;;;;;;;;;17.94;76.65;99627.37;1736733;82;20998;-81
2021/08/08 00:53:12;;;;;;;4.30;2.27;;;;;;;17.94;76.81;99627.95;1690819;81;20178;-79
2021/08/08 00:55:39;;;;;;;2.40;2.08;;;;;;;17.92;76.88;99632.33;1760694;81;21499;-80
2021/08/08 00:58:06;;;;;;;2.02;1.85;;;;;;;17.90;77.01;99629.64;1712107;82;21169;-78
2021/08/08 01:00:35;;;;;;;2.02;1.92;;;;;;;17.85;77.12;99636.78;1735242;81;21533;-77
2021/08/08 01:03:05;;;;;;;2.20;2.00;;;;;;;17.85;77.22;99642.78;1749244;81;21485;-78
2021/08/08 01:05:38;;;;;;;3.05;2.15;;;;;;;17.86;77.28;99645.20;1762840;81;20948;-80
2021/08/08 01:08:05;;;;;;;2.25;2.05;;;;;;;17.90;77.32;99645.96;1711512;82;21632;-79
2021/08/08 01:10:33;;;;;;;5.95;2.30;;;;;;;17.95;77.28;99643.97;1735236;82;21437;-80
2021/08/08 01:13:02;;;;;;;4.58;2.20;;;;;;;17.95;77.16;99648.05;1712493;82;20973;-78
2021/08/08 01:15:31;;;;;;;2.75;2.25;;;;;;;17.97;77.27;99650.48;1758532;81;20892;-78
2021/08/08 01:17:58;;;;;;;2.60;2.40;;;;;;;17.93;77.72;99648.91;1737136;81;21068;-77
2021/08/08 01:20:26;;;;;;;2.62;2.30;;;;;;;17.89;77.89;99643.79;1762151;81;21025;-77
2021/08/08 01:22:59;;;;;;;1.90;1.80;;;;;;;17.84;78.45;99655.58;1735388;81;22430;-77
2021/08/08 01:25:26;;;;;;;5.12;3.45;;;;;;;17.77;77.96;99654.36;1687358;84;21060;-78
2021/08/08 01:27:54;;;;;;;2.72;2.37;;;;;;;17.71;78.02;99656.34;1705545;82;21052;-77
2021/08/08 01:30:23;;;;;;;3.55;2.52;;;;;;;17.66;78.25;99654.26;1704402;83;21000;-77
2021/08/08 01:32:50;;;;;;;5.92;2.27;;;;;;;17.70;78.40;99660.16;1714555;82;21002;-77
2021/08/08 01:35:18;;;;;;;2.75;2.55;;;;;;;17.70;78.11;99662.08;1735269;82;21530;-77
2021/08/08 01:37:46;;;;;;;2.20;2.00;;;;;;;17.65;78.21;99665.69;1712181;82;20964;-77
2021/08/08 01:40:20;;;;;;;4.30;2.50;;;;;;;17.55;78.43;99667.76;1762109;81;21029;-78
2021/08/08 01:42:47;;;;;;;2.20;2.05;;;;;;;17.52;79.66;99670.50;1735248;81;20970;-79
2021/08/08 01:45:14;;;;;;;2.40;2.02;;;;;;;17.55;80.27;99667.76;1753537;81;20960;-79
2021/08/08 01:47:45;;;;;;;2.30;2.10;;;;;;;17.59;80.87;99656.02;1741395;81;21121;-78
2021/08/08 01:50:13;;;;;;;2.37;2.17;;;;;;;17.66;80.69;99651.54;1722100;81;21021;-79
2021/08/08 01:52:42;;;;;;;2.62;2.37;;;;;;;17.73;79.98;99654.16;1751392;81;21554;-80
2021/08/08 01:55:10;;;;;;;6.53;2.37;;;;;;;17.76;79.47;99658.98;1702641;83;20922;-76
2021/08/08 01:57:39;;;;;;;1.87;1.77;;;;;;;17.78;79.00;99653.25;1699358;83;21072;-78
2021/08/08 02:00:09;;;;;;;2.30;2.10;;;;;;;17.78;78.69;99654.06;1694236;83;21091;-78
2021/08/08 02:02:57;;;;;;;2.30;1.95;;;;;;;17.81;78.51;99659.45;1721153;83;20994;-78
2021/08/08 02:05:28;;;;;;;3.75;2.22;;;;;;;17.84;78.67;99660.23;1721017;82;20953;-78
2021/08/08 02:07:56;;;;;;;3.35;2.40;;;;;;;17.88;78.93;99656.36;1723115;82;21065;-76
2021/08/08 02:10:23;;;;;;;2.25;2.05;;;;;;;17.92;78.77;99662.27;1721498;82;20958;-76
2021/08/08 02:12:50;;;;;;;2.98;2.25;;;;;;;17.92;78.69;99659.54;1721662;83;22095;-76
2021/08/08 02:15:18;;;;;;;2.70;2.50;;;;;;;17.91;78.72;99663.36;1741675;81;20973;-76
2021/08/08 02:17:47;;;;;;;3.25;2.60;;;;;;;17.91;79.10;99663.91;1720379;83;21006;-77
2021/08/08 02:20:17;;;;;;;2.67;1.98;;;;;;;17.89;79.28;99662.84;1707550;83;21498;-76
2021/08/08 02:22:46;;;;;;;2.35;2.15;;;;;;;17.91;79.47;99672.89;1672670;84;21013;-77
2021/08/08 02:25:15;;;;;;;2.35;2.15;;;;;;;17.93;79.38;99678.85;1694736;82;21509;-76
2021/08/08 02:27:42;;;;;;;2.33;2.12;;;;;;;17.96;79.72;99674.70;1692589;83;20915;-76
2021/08/08 02:30:16;;;;;;;2.20;1.92;;;;;;;17.98;79.68;99669.23;1722247;81;21546;-77
2021/08/08 02:32:43;;;;;;;2.72;2.20;;;;;;;17.95;79.63;99665.73;1752042;81;20997;-77
2021/08/08 02:35:11;;;;;;;4.12;2.20;;;;;;;17.93;79.73;99667.97;1744261;81;20983;-77
2021/08/08 02:37:40;;;;;;;2.22;2.02;;;;;;;17.91;79.70;99670.71;1699310;83;21097;-77
2021/08/08 02:40:10;;;;;;;2.40;2.00;;;;;;;17.85;79.84;99669.44;1718763;83;21502;-78
2021/08/08 02:42:37;;;;;;;6.85;2.20;;;;;;;17.77;79.82;99673.40;1721438;82;20994;-76
2021/08/08 02:45:05;;;;;;;3.00;1.90;;;;;;;17.72;79.88;99666.68;1726635;82;21563;-76
2021/08/08 02:47:31;;;;;;;1.95;1.80;;;;;;;17.70;79.83;99662.89;1707602;81;21033;-77
2021/08/08 02:49:59;;;;;;;3.55;2.05;;;;;;;17.67;79.59;99665.41;1697546;83;21043;-77
2021/08/08 02:52:26;;;;;;;2.60;2.15;;;;;;;17.59;79.84;99668.26;1722467;83;21035;-78
2021/08/08 02:54:54;;;;;;;2.08;1.98;;;;;;;17.56;80.01;99670.16;1722073;82;21041;-78
2021/08/08 02:57:21;;;;;;;3.35;2.22;;;;;;;17.54;80.39;99678.38;1703593;83;21499;-77
2021/08/08 02:59:48;;;;;;;3.30;2.30;;;;;;;17.53;80.64;99680.28;1742624;82;21046;-79
2021/08/08 03:02:16;;;;;;;3.20;2.70;;;;;;;17.57;81.24;99672.33;1712591;83;22169;-77
2021/08/08 03:04:45;;;;;;;3.20;3.00;;;;;;;17.62;82.05;99669.56;1698901;83;20960;-77
2021/08/08 03:07:12;;;;;;;2.25;2.08;;;;;;;17.69;82.67;99672.72;1715581;82;20978;-78
2021/08/08 03:09:39;;;;;;;2.60;2.25;;;;;;;17.71;82.38;99668.59;1712674;83;20994;-79
2021/08/08 03:12:06;;;;;;;4.30;2.45;;;;;;;17.73;82.69;99679.99;1712361;83;21053;-80
2021/08/08 03:14:35;;;;;;;2.47;2.25;;;;;;;17.76;83.65;99682.11;1697590;83;21085;-78
2021/08/08 03:17:03;;;;;;;2.83;2.62;;;;;;;17.78;83.69;99678.55;1716660;82;20995;-77
2021/08/08 03:19:31;;;;;;;2.60;2.40;;;;;;;17.81;84.80;99683.39;1712425;83;20982;-76
2021/08/08 03:21:58;;;;;;;4.25;2.47;;;;;;;17.84;85.55;99684.14;1712236;83;21002;-77
2021/08/08 03:24:24;;;;;;;3.62;2.50;;;;;;;17.85;86.10;99680.33;1703615;83;20982;-77
2021/08/08 03:26:51;;;;;;;2.70;2.50;;;;;;;17.85;86.01;99684.95;1712424;83;21889;-78
2021/08/08 03:29:19;;;;;;;3.08;2.72;;;;;;;17.86;86.32;99692.02;1666436;85;20906;-77
2021/08/08 03:31:47;;;;;;;3.02;2.62;;;;;;;17.86;86.43;99695.55;1661818;85;20964;-77
2021/08/08 03:34:14;;;;;;;2.37;2.17;;;;;;;17.89;86.31;99692.77;1649072;85;21029;-77
2021/08/08 03:36:41;;;;;;;3.02;2.70;;;;;;;17.93;86.12;99694.36;1678314;84;20988;-76
2021/08/08 03:39:08;;;;;;;3.17;2.60;;;;;;;17.98;85.75;99695.64;1678424;84;20933;-76
2021/08/08 03:41:35;;;;;;;3.72;2.58;;;;;;;18.02;85.39;99695.30;1698774;84;20992;-78
2021/08/08 03:44:01;;;;;;;2.83;2.50;;;;;;;18.06;85.15;99688.95;1685545;84;20961;-75
2021/08/08 03:46:28;;;;;;;3.60;2.55;;;;;;;18.10;84.85;99699.49;1674603;85;21047;-77
2021/08/08 03:48:55;;;;;;;2.50;2.30;;;;;;;18.08;84.15;99698.97;1654721;85;21043;-84
2021/08/08 03:51:21;;;;;;;2.15;2.05;;;;;;;18.09;84.18;99694.34;1658238;85;21583;-76
2021/08/08 03:53:48;;;;;;;2.62;2.42;;;;;;;18.11;84.21;99694.31;1694204;83;21520;-76
2021/08/08 03:56:15;;;;;;;3.05;2.75;;;;;;;18.12;84.20;99696.48;1761160;81;21082;-79
2021/08/08 03:58:43;;;;;;;2.65;2.45;;;;;;;18.09;84.25;99695.16;1761097;81;21465;-78
2021/08/08 04:01:09;;;;;;;4.00;2.70;;;;;;;18.05;84.34;99692.78;1761052;81;21000;-78
2021/08/08 04:03:36;;;;;;;2.70;2.50;;;;;;;18.04;84.57;99695.79;1750291;81;21014;-79
2021/08/08 04:06:04;;;;;;;4.12;2.80;;;;;;;18.04;84.85;99702.04;1756033;80;21046;-79
2021/08/08 04:08:31;;;;;;;2.95;2.70;;;;;;;18.05;85.05;99697.41;1677750;85;20987;-79
2021/08/08 04:10:59;;;;;;;2.70;2.42;;;;;;;18.09;85.18;99701.95;1735395;82;20953;-79
2021/08/08 04:13:27;;;;;;;2.40;2.20;;;;;;;18.15;85.15;99706.21;1716580;81;20977;-78
2021/08/08 04:15:54;;;;;;;2.47;2.27;;;;;;;18.22;85.04;99707.20;1756936;81;21082;-78
2021/08/08 04:18:22;;;;;;;2.65;2.45;;;;;;;18.26;84.88;99700.84;1720738;81;22183;-76
2021/08/08 04:20:49;;;;;;;2.95;2.75;;;;;;;18.28;84.76;99699.98;1704260;83;21013;-78
2021/08/08 04:23:17;;;;;;;2.95;2.10;;;;;;;18.30;84.75;99697.77;1720580;82;21072;-78
2021/08/08 04:25:44;;;;;;;2.52;2.33;;;;;;;18.35;84.62;99696.06;1712906;82;21077;-80
2021/08/08 04:28:11;;;;;;;2.77;2.55;;;;;;;18.40;84.45;99698.14;1677804;85;21184;-80
2021/08/08 04:30:39;;;;;;;9.48;4.35;;;;;;;18.48;84.24;99695.26;1711953;82;20914;-78
2021/08/08 04:33:05;;;;;;;2.55;2.35;;;;;;;18.57;83.91;99697.01;1708432;82;21009;-77
2021/08/08 04:35:32;;;;;;;3.42;2.45;;;;;;;18.66;83.59;99699.83;1704027;82;20992;-76
2021/08/08 04:38:01;;;;;;;3.50;2.55;;;;;;;18.72;83.18;99693.18;1735158;82;20978;-77
2021/08/08 04:40:29;;;;;;;3.40;3.05;;;;;;;18.78;83.02;99689.80;1735258;82;21455;-76
2021/08/08 04:42:58;;;;;;;6.92;3.47;;;;;;;18.80;82.92;99688.37;1710988;82;21099;-77
2021/08/08 04:45:26;;;;;;;3.20;2.37;;;;;;;18.85;82.79;99692.36;1724324;82;20955;-78
2021/08/08 04:47:55;;;;;;;7.05;2.98;;;;;;;18.93;82.62;99697.67;1736943;82;21520;-77
2021/08/08 04:50:23;;;;;;;3.42;2.50;;;;;;;19.00;82.36;99696.13;1732219;82;21551;-78
2021/08/08 04:52:51;;;;;;;3.55;2.65;;;;;;;19.05;82.11;99689.20;1728088;81;20974;-76
2021/08/08 04:55:19;;;;;;;2.90;2.52;;;;;;;19.11;81.98;99688.55;1698800;82;20941;-77
2021/08/08 04:57:45;;;;;;;3.12;2.30;;;;;;;19.15;81.76;99694.44;1720876;83;21065;-78
2021/08/08 05:00:14;;;;;;;2.67;2.42;;;;;;;19.21;81.38;99697.06;1720870;83;21033;-77
2021/08/08 05:02:46;;;;;;;2.33;2.12;;;;;;;19.23;80.48;99703.02;1718489;83;21116;-77
2021/08/08 05:05:13;;;;;;;2.50;2.30;;;;;;;19.23;79.99;99705.75;1722563;82;21335;-78
2021/08/08 05:07:40;;;;;;;3.10;2.60;;;;;;;19.27;79.74;99695.29;1722761;82;21528;-76
2021/08/08 05:10:09;;;;;;;2.08;1.77;;;;;;;19.34;79.68;99700.30;1722727;82;21035;-76
2021/08/08 05:12:37;;;;;;;2.60;2.27;;;;;;;19.42;79.22;99705.05;1730063;81;21048;-77
2021/08/08 05:15:08;;;;;;;1.70;1.60;;;;;;;19.49;78.79;99710.34;1700412;82;21042;-80
2021/08/08 05:17:35;;;;;;;2.17;2.00;;;;;;;19.56;77.77;99709.93;1702491;83;21948;-77
2021/08/08 05:20:05;;;;;;;2.75;2.08;;;;;;;19.59;77.25;99713.40;1721273;83;20994;-78
2021/08/08 05:22:31;;;;;;;1.72;1.52;;;;;;;19.64;76.37;99714.64;1721415;83;21013;-76
2021/08/08 05:24:58;;;;;;;2.98;1.77;;;;;;;19.67;75.88;99720.84;1697444;82;21611;-77
2021/08/08 05:27:25;;;;;;;2.77;2.00;;;;;;;19.70;74.36;99717.51;1696487;83;21041;-76
2021/08/08 05:29:51;;;;;;;3.25;1.90;;;;;;;19.73;74.14;99713.34;1721330;83;21532;-76
2021/08/08 05:32:18;;;;;;;3.02;1.92;;;;;;;19.78;73.75;99712.66;1721044;83;20966;-77
2021/08/08 05:34:46;;;;;;;6.55;2.12;;;;;;;19.85;73.37;99710.87;1722241;82;21774;-77
2021/08/08 05:37:13;;;;;;;2.35;1.98;;;;;;;19.90;73.02;99709.39;1722813;82;21237;-77
2021/08/08 05:39:40;;;;;;;2.47;2.15;;;;;;;19.92;71.92;99699.75;1722581;82;21068;-78
2021/08/08 05:42:07;;;;;;;3.37;2.20;;;;;;;19.96;71.59;99715.75;1722692;82;21101;-78
2021/08/08 05:44:37;;;;;;;6.05;2.80;;;;;;;20.01;71.65;99712.09;1706493;82;20982;-78
2021/08/08 05:47:06;;;;;;;2.58;1.62;;;;;;;20.06;71.35;99711.97;1711572;83;21490;-78
2021/08/08 05:49:34;;;;;;;2.12;1.90;;;;;;;20.17;71.07;99724.25;1718675;83;21006;-76
2021/08/08 05:52:05;;;;;;;4.28;2.40;;;;;;;20.17;71.07;99724.25;1712406;83;21500;-78
2021/08/08 05:54:31;;;;;;;2.33;2.12;;;;;;;20.18;70.48;99722.33;1685281;83;21268;-78
2021/08/08 05:56:58;;;;;;;1.77;1.67;;;;;;;20.25;70.38;99736.33;1714399;82;20965;-78
2021/08/08 05:59:27;;;;;;;2.92;1.92;;;;;;;20.25;70.38;99736.33;1698645;83;20928;-79
2021/08/08 06:01:54;;;;;;;3.33;2.40;;;;;;;20.24;70.30;99731.42;1688945;84;21029;-80
2021/08/08 06:04:21;;;;;;;2.95;2.30;;;;;;;20.31;69.97;99732.39;1693984;83;21031;-80
2021/08/08 06:06:47;;;;;;;3.58;2.22;;;;;;;20.36;70.00;99737.72;1712383;83;21539;-77
2021/08/08 06:09:15;;;;;;;3.75;2.50;;;;;;;20.44;69.78;99728.76;1712400;83;21286;-79
2021/08/08 06:11:43;;;;;;;5.67;2.47;;;;;;;20.51;69.05;99727.77;1712360;82;21022;-78
2021/08/08 06:14:10;;;;;;;2.62;2.42;;;;;;;20.54;68.15;99729.85;1700301;83;21061;-78
2021/08/08 06:16:36;;;;;;;2.98;2.67;;;;;;;20.55;67.71;99727.37;1682113;85;20974;-79
2021/08/08 06:19:04;;;;;;;2.37;2.17;;;;;;;20.55;67.45;99730.10;1682332;85;22461;-76
2021/08/08 06:21:33;;;;;;;3.37;2.83;;;;;;;20.57;67.18;99737.44;1670716;83;21488;-78
2021/08/08 06:24:01;;;;;;;2.62;1.87;;;;;;;20.60;66.39;99735.99;1692989;83;21065;-77
2021/08/08 06:26:28;;;;;;;2.62;1.92;;;;;;;20.61;66.35;99728.86;1734138;82;21065;-77
2021/08/08 06:28:56;;;;;;;5.87;2.20;;;;;;;20.66;66.32;99725.17;1712531;83;20990;-75
2021/08/08 06:31:23;;;;;;;2.22;1.90;;;;;;;20.70;65.48;99731.06;1712592;83;21125;-75
2021/08/08 06:33:50;;;;;;;5.20;2.72;;;;;;;20.75;65.34;99743.78;1712846;83;21601;-75
2021/08/08 06:36:16;;;;;;;2.25;2.02;;;;;;;20.78;64.82;99742.58;1693725;83;20994;-74
2021/08/08 06:38:43;;;;;;;2.92;2.58;;;;;;;20.82;63.68;99743.55;1706368;83;21052;-77
2021/08/08 06:41:11;;;;;;;4.00;1.92;;;;;;;20.84;63.06;99743.25;1712456;83;21470;-77
2021/08/08 06:43:39;;;;;;;3.00;2.22;;;;;;;20.90;63.72;99739.25;1742529;82;21051;-76
2021/08/08 06:46:06;;;;;;;4.90;2.67;;;;;;;20.94;64.22;99748.99;1712651;83;21518;-77
2021/08/08 06:48:34;;;;;;;2.42;2.22;;;;;;;20.97;64.18;99753.81;1702188;83;20962;-76
2021/08/08 06:51:02;;;;;;;4.45;2.20;;;;;;;21.01;64.40;99752.05;1693068;83;21130;-75
2021/08/08 06:53:30;;;;;;;3.20;2.90;;;;;;;21.07;63.99;99756.26;1693803;83;21526;-77
2021/08/08 06:55:59;;;;;;;3.02;2.80;;;;;;;21.10;63.54;99754.28;1712667;83;20994;-79
2021/08/08 06:59:19;;;;;;;9.28;3.10;;;;;;;21.11;63.72;99749.03;1696402;83;20980;-77
2021/08/08 07:01:46;;;;;;;2.60;2.20;;;;;;;21.13;63.88;99754.47;1682671;84;20957;-77
2021/08/08 07:04:13;;;;;;;2.85;2.65;;;;;;;21.18;63.29;99748.86;1664213;85;21363;-77
2021/08/08 07:06:40;;;;;;;5.40;3.45;;;;;;;21.22;62.32;99755.30;1694611;83;21069;-78
2021/08/08 07:09:09;;;;;;;4.90;2.60;;;;;;;21.29;62.67;99757.58;1708498;83;22054;-76
2021/08/08 07:11:36;;;;;;;5.00;3.42;;;;;;;21.31;62.31;99762.14;1690427;84;21528;-77
2021/08/08 07:14:05;;;;;;;2.37;2.17;;;;;;;21.34;61.76;99768.38;1690375;84;20979;-76
2021/08/08 07:16:32;;;;;;;7.62;3.65;;;;;;;21.34;61.49;99765.63;1690218;84;21046;-77
2021/08/08 07:18:59;;;;;;;5.00;3.60;;;;;;;21.37;62.02;99764.17;1691650;83;21574;-74
2021/08/08 07:21:26;;;;;;;6.05;2.70;;;;;;;21.45;62.27;99764.74;1682409;85;21851;-77
2021/08/08 07:23:53;;;;;;;3.75;2.67;;;;;;;21.50;61.99;99761.85;1682472;83;21490;-78
2021/08/08 07:26:20;;;;;;;5.33;2.52;;;;;;;21.56;62.01;99766.05;1682939;85;21013;-74
2021/08/08 07:28:47;;;;;;;4.95;2.67;;;;;;;21.63;62.04;99769.91;1638331;86;21631;-74
2021/08/08 07:31:14;;;;;;;4.15;2.27;;;;;;;21.66;61.49;99766.55;1652883;86;21634;-74
2021/08/08 07:33:40;;;;;;;2.72;2.50;;;;;;;21.71;60.44;99766.39;1626727;85;21095;-75
2021/08/08 07:36:07;;;;;;;3.37;2.40;;;;;;;21.78;60.71;99768.62;1674711;85;21055;-75
2021/08/08 07:38:34;;;;;;;3.90;1.95;;;;;;;21.83;60.63;99772.58;1668515;85;21591;-77
2021/08/08 07:41:01;;;;;;;2.62;2.15;;;;;;;21.89;60.27;99772.67;1635890;85;21102;-77
2021/08/08 07:43:29;;;;;;;2.17;1.98;;;;;;;21.94;60.16;99775.84;1672418;85;21572;-77
2021/08/08 07:45:56;;;;;;;2.52;2.20;;;;;;;21.98;59.96;99773.49;1653034;85;21111;-76
2021/08/08 07:48:23;;;;;;;2.20;2.00;;;;;;;22.04;59.77;99779.63;1664152;85;21102;-75
2021/08/08 07:50:51;;;;;;;3.20;2.00;;;;;;;22.09;59.75;99779.45;1692402;82;20951;-77
2021/08/08 07:53:18;;;;;;;2.72;1.82;;;;;;;22.15;59.33;99781.72;1650277;87;21073;-77
2021/08/08 07:55:46;;;;;;;4.10;2.47;;;;;;;22.21;58.40;99780.95;1650612;87;21539;-76
2021/08/08 07:58:13;;;;;;;2.65;2.10;;;;;;;22.24;58.25;99785.00;1652701;84;21709;-77
2021/08/08 08:00:40;;;;;;;2.85;2.20;;;;;;;22.26;58.30;99786.27;1704318;84;21015;-77
2021/08/08 08:03:07;;;;;;;2.45;2.22;;;;;;;22.33;58.47;99779.75;1682295;84;20956;-75
2021/08/08 08:05:34;;;;;;;3.40;2.47;;;;;;;22.40;58.16;99784.71;1682081;84;20971;-87
2021/08/08 08:08:03;;;;;;;2.30;2.10;;;;;;;22.45;57.83;99785.34;1681348;84;21022;-75
2021/08/08 08:10:31;;;;;;;2.17;1.98;;;;;;;22.50;56.17;99796.70;1682127;84;21303;-77
2021/08/08 08:13:00;;;;;;;3.35;2.52;;;;;;;22.58;56.64;99794.53;1687299;82;21003;-76
2021/08/08 08:15:28;;;;;;;2.02;1.70;;;;;;;22.66;56.77;99792.88;1678598;84;21570;-75
2021/08/08 08:17:56;;;;;;;1.67;1.57;;;;;;;22.72;56.77;99786.13;1654049;84;21086;-80
2021/08/08 08:20:23;;;;;;;3.62;2.17;;;;;;;22.80;56.90;99789.39;1729043;83;21037;-75
2021/08/08 08:22:50;;;;;;;5.60;2.90;;;;;;;22.87;55.50;99788.33;1713561;83;21569;-76
2021/08/08 08:25:18;;;;;;;5.35;2.50;;;;;;;22.93;55.67;99786.42;1739524;81;20934;-76
2021/08/08 08:27:45;;;;;;;2.25;2.05;;;;;;;23.01;55.14;99788.91;1735560;82;21331;-77
2021/08/08 08:30:12;;;;;;;2.52;2.02;;;;;;;23.09;54.38;99788.06;1735813;81;21033;-77
2021/08/08 08:32:39;;;;;;;2.17;1.70;;;;;;;23.11;54.23;99783.05;1676316;85;21132;-78
2021/08/08 08:35:07;;;;;;;1.82;1.70;;;;;;;23.12;53.52;99773.67;1676681;83;21102;-76
2021/08/08 08:37:33;;;;;;;2.77;1.65;;;;;;;23.16;53.05;99773.27;1659677;84;21031;-75
2021/08/08 08:40:01;;;;;;;3.12;2.22;;;;;;;23.21;52.02;99778.57;1671553;84;21003;-76
2021/08/08 08:42:29;;;;;;;2.67;2.37;;;;;;;23.26;51.58;99759.14;1680287;84;20967;-75
2021/08/08 08:44:56;;;;;;;2.27;2.05;;;;;;;23.34;50.93;99771.22;1704660;84;21072;-78
2021/08/08 08:47:23;;;;;;;2.67;2.00;;;;;;;23.39;51.54;99762.79;1657664;84;21716;-77
2021/08/08 08:49:59;;;;;;;1.95;1.50;;;;;;;23.44;51.68;99758.48;1680377;84;21188;-79
2021/08/08 08:52:27;;;;;;;2.60;2.40;;;;;;;23.51;50.81;99753.84;1691977;83;21600;-76
2021/08/08 08:54:55;;;;;;;2.42;1.95;;;;;;;23.58;49.97;99767.29;1678067;84;21103;-74
2021/08/08 08:57:21;;;;;;;3.87;1.65;;;;;;;23.61;48.90;99757.56;1647893;83;21247;-74
2021/08/08 08:59:49;;;;;;;2.50;1.98;;;;;;;23.67;49.39;99757.61;1722569;83;21047;-78
2021/08/08 09:02:16;;;;;;;2.08;1.80;;;;;;;23.67;49.46;99747.43;1722507;83;21037;-75
2021/08/08 09:04:43;;;;;;;3.30;1.42;;;;;;;23.70;49.81;99744.56;1722080;83;21010;-75
2021/08/08 09:07:13;;;;;;;2.52;1.80;;;;;;;23.79;50.18;99744.73;1722602;83;21057;-74
2021/08/08 09:09:40;;;;;;;2.25;1.80;;;;;;;23.86;50.09;99751.06;1676568;85;21055;-71
2021/08/08 09:12:09;;;;;;;2.17;1.98;;;;;;;23.96;49.25;99753.97;1696726;83;22031;-72
2021/08/08 09:14:36;;;;;;;1.72;1.60;;;;;;;24.00;48.98;99753.53;1672597;84;20971;-71
2021/08/08 09:17:04;;;;;;;3.47;2.20;;;;;;;24.06;48.76;99756.31;1681540;85;21032;-72
2021/08/08 09:19:34;;;;;;;2.65;1.50;;;;;;;24.11;47.97;99750.03;1697258;84;21075;-72
2021/08/08 09:22:08;;;;;;;1.80;1.70;;;;;;;24.17;46.34;99741.82;1711336;83;21088;-73
2021/08/08 09:24:36;;;;;;;2.75;1.75;;;;;;;24.22;45.32;99740.83;1717082;83;21461;-72
2021/08/08 09:27:11;;;;;;;1.92;1.80;;;;;;;24.26;45.96;99738.44;1720872;82;21089;-74
2021/08/08 09:29:41;;;;;;;3.27;2.85;;;;;;;24.31;45.86;99733.30;1720834;82;20972;-73
2021/08/08 09:32:08;;;;;;;3.40;2.50;;;;;;;24.38;45.32;99725.27;1718993;82;21284;-73
2021/08/08 09:34:37;;;;;;;4.62;1.90;;;;;;;24.44;45.00;99725.30;1713878;83;21056;-75
2021/08/08 09:37:19;;;;;;;4.33;1.77;;;;;;;24.49;44.94;99727.02;1713362;83;21082;-77
2021/08/08 09:39:51;;;;;;;1.57;1.35;;;;;;;24.54;44.31;99733.11;1712884;83;21032;-79
2021/08/08 09:42:22;;;;;;;2.55;1.60;;;;;;;24.56;44.38;99742.37;1691953;83;24977;-74
2021/08/08 09:44:57;;;;;;;2.60;1.90;;;;;;;24.58;44.63;99739.52;1697616;83;21158;-70
2021/08/08 09:47:49;;;;;;;1.60;1.50;;;;;;;24.62;44.88;99736.88;1713275;83;21101;-70
2021/08/08 09:50:18;;;;;;;1.77;1.67;;;;;;;24.67;44.95;99727.03;1707386;83;21141;-72
2021/08/08 09:52:54;;;;;;;5.17;1.52;;;;;;;24.72;44.08;99730.94;1709842;83;21557;-73
2021/08/08 09:55:30;;;;;;;3.08;2.15;;;;;;;24.80;42.89;99727.83;1735460;81;21083;-72
2021/08/08 09:57:57;;;;;;;3.80;2.20;;;;;;;24.85;43.48;99727.61;1689609;84;21578;-72
2021/08/08 10:00:36;;;;;;;3.62;1.90;;;;;;;24.85;43.10;99739.42;1707019;82;21023;-73
2021/08/08 10:03:04;;;;;;;1.37;1.27;;;;;;;24.91;42.68;99738.66;1731790;82;21541;-73
2021/08/08 10:05:36;;;;;;;2.10;1.90;;;;;;;24.95;42.56;99737.62;1732058;83;20945;-75
2021/08/08 10:08:12;;;;;;;2.58;1.30;;;;;;;25.02;42.08;99735.69;1711405;83;20956;-74
2021/08/08 10:10:46;;;;;;;3.65;1.67;;;;;;;25.07;42.18;99732.70;1685643;85;20991;-72
2021/08/08 10:13:56;;;;;;;2.05;1.70;;;;;;;25.13;41.89;99726.59;1732003;82;22280;-72
2021/08/08 10:16:24;;;;;;;2.40;2.10;;;;;;;25.18;40.30;99734.63;1731718;83;20925;-72
2021/08/08 10:18:56;;;;;;;2.35;1.55;;;;;;;25.22;37.37;99735.33;1681693;84;21064;-72
2021/08/08 10:21:23;;;;;;;4.17;1.95;;;;;;;25.24;38.50;99733.02;1682675;84;21061;-71
2021/08/08 10:23:52;;;;;;;3.42;2.10;;;;;;;25.31;37.80;99733.24;1710122;83;21104;-73
2021/08/08 10:26:19;;;;;;;1.67;1.40;;;;;;;25.37;38.44;99731.27;1710418;83;21553;-70
2021/08/08 10:28:49;;;;;;;2.50;1.60;;;;;;;25.48;38.71;99724.70;1731289;83;21120;-71
2021/08/08 10:31:17;;;;;;;3.25;1.52;;;;;;;25.60;38.88;99733.79;1731243;82;21032;-71
2021/08/08 10:33:51;;;;;;;2.77;2.17;;;;;;;25.71;38.95;99736.06;1730609;83;21027;-73
2021/08/08 10:36:23;;;;;;;1.57;1.47;;;;;;;25.79;39.35;99746.12;1731430;82;21020;-71
2021/08/08 10:39:12;;;;;;;1.67;1.55;;;;;;;25.88;38.44;99745.40;1732011;82;20958;-70
2021/08/08 10:41:41;;;;;;;1.77;1.50;;;;;;;25.92;38.53;99748.48;1718908;81;21167;-75
2021/08/08 10:44:10;;;;;;;2.15;2.05;;;;;;;26.01;38.87;99738.67;1697289;83;21099;-72
2021/08/08 10:46:52;;;;;;;3.12;2.90;;;;;;;26.09;39.44;99725.30;1709869;83;21001;-73
2021/08/08 10:49:30;;;;;;;4.75;1.75;;;;;;;26.16;39.49;99724.70;1709877;83;20988;-72
2021/08/08 10:52:01;;;;;;;2.30;2.10;;;;;;;26.18;40.22;99716.33;1711232;82;21029;-73
2021/08/08 10:54:46;;;;;;;2.12;1.92;;;;;;;26.27;40.05;99715.61;1735060;82;21894;-75
2021/08/08 10:57:15;;;;;;;2.08;1.37;;;;;;;26.33;38.20;99712.80;1735330;82;21000;-74
2021/08/08 10:59:50;;;;;;;3.52;1.62;;;;;;;26.47;38.86;99722.04;1735118;82;21057;-74
2021/08/08 11:02:27;;;;;;;3.12;1.90;;;;;;;26.48;38.73;99722.23;1683119;84;21024;-73
2021/08/08 11:04:53;;;;;;;2.20;1.70;;;;;;;26.52;38.83;99726.49;1735171;82;21592;-75
2021/08/08 11:07:27;;;;;;;2.40;1.90;;;;;;;26.68;41.03;99727.28;1734789;82;20989;-74
2021/08/08 11:09:53;;;;;;;2.70;2.33;;;;;;;26.78;40.21;99717.89;1712225;82;20977;-77
2021/08/08 11:12:32;;;;;;;1.65;1.55;;;;;;;26.93;40.71;99726.55;1735501;82;21001;-71
2021/08/08 11:15:04;;;;;;;3.50;2.05;;;;;;;27.08;40.65;99732.63;1707177;84;21540;-73
2021/08/08 11:17:35;;;;;;;3.10;2.55;;;;;;;27.20;40.34;99728.36;1707816;84;21215;-81
2021/08/08 11:20:03;;;;;;;4.62;2.10;;;;;;;27.26;39.77;99719.45;1707540;84;21188;-79
2021/08/08 11:22:29;;;;;;;2.47;1.70;;;;;;;27.33;39.89;99724.34;1683032;84;20970;-75
2021/08/08 11:25:12;;;;;;;2.92;1.80;;;;;;;27.44;39.29;99723.17;1734956;82;21008;-74
2021/08/08 11:27:43;;;;;;;;;;;;;;;27.50;38.65;99729.47;1738043;82;21034;-74
2021/08/08 11:30:13;;;;;;;3.85;1.95;;;;;;;27.56;38.31;99723.89;1735177;82;20125;-74
2021/08/08 11:32:41;;;;;;;5.03;1.80;;;;;;;27.56;38.40;99715.59;1735055;82;21067;-73
2021/08/08 11:35:16;;;;;;;4.25;1.70;;;;;;;27.60;38.18;99723.38;1734840;82;21485;-74
2021/08/08 11:37:46;;;;;;;2.02;1.77;;;;;;;27.62;37.79;99721.06;1735265;82;20969;-74
2021/08/08 11:40:22;;;;;;;2.47;1.57;;;;;;;27.63;37.10;99711.59;1682756;84;21087;-74
2021/08/08 11:42:59;;;;;;;3.92;1.87;;;;;;;27.63;36.88;99713.55;1710929;82;21036;-78